sensor_id;sensor_type;location;lat;lon;timestamp;temperature;humidity
32536;DHT22;18974;50.838;4.636;2023-03-01T00:01:09;1.70;99.90
32536;DHT22;18974;50.838;4.636;2023-03-01T00:03:35;1.60;99.90
32536;DHT22;18974;50.838;4.636;2023-03-01T00:06:02;1.60;99.90
32536;DHT22;18974;50.838;4.636;2023-03-01T00:08:28;1.50;99.90
32536;DHT22;18974;50.838;4.636;2023-03-01T00:11:19;1.50;99.90
32536;DHT22;18974;50.838;4.636;2023-03-01T00:13:47;1.50;99.90
32536;DHT22;18974;50.838;4.636;2023-03-01T00:16:21;1.40;99.90
32536;DHT22;18974;50.838;4.636;2023-03-01T00:18:47;1.40;99.90
32536;DHT22;18974;50.838;4.636;2023-03-01T00:21:13;1.50;99.90
32536;DHT22;18974;50.838;4.636;2023-03-01T00:23:39;1.50;99.90
32536;DHT22;18974;50.838;4.636;2023-03-01T00:26:07;1.40;99.90
32536;DHT22;18974;50.838;4.636;2023-03-01T00:28:33;1.50;99.90
32536;DHT22;18974;50.838;4.636;2023-03-01T00:31:11;1.40;99.90
32536;DHT22;18974;50.838;4.636;2023-03-01T00:33:37;1.30;99.90
32536;DHT22;18974;50.838;4.636;2023-03-01T00:36:03;1.40;99.90
32536;DHT22;18974;50.838;4.636;2023-03-01T00:38:29;1.40;99.90
32536;DHT22;18974;50.838;4.636;2023-03-01T00:40:55;1.30;99.90
32536;DHT22;18974;50.838;4.636;2023-03-01T00:43:21;1.30;99.90
32536;DHT22;18974;50.838;4.636;2023-03-01T00:45:47;1.30;99.90
32536;DHT22;18974;50.838;4.636;2023-03-01T00:48:12;1.20;99.90
32536;DHT22;18974;50.838;4.636;2023-03-01T00:50:38;1.20;99.90
32536;DHT22;18974;50.838;4.636;2023-03-01T00:53:04;1.20;99.90
32536;DHT22;18974;50.838;4.636;2023-03-01T00:55:30;1.10;99.90
32536;DHT22;18974;50.838;4.636;2023-03-01T00:57:56;1.10;99.90
32536;DHT22;18974;50.838;4.636;2023-03-01T01:00:22;1.10;99.90
32536;DHT22;18974;50.838;4.636;2023-03-01T01:02:48;1.10;99.90
32536;DHT22;18974;50.838;4.636;2023-03-01T01:05:14;1.10;99.90
32536;DHT22;18974;50.838;4.636;2023-03-01T01:07:39;1.20;99.90
32536;DHT22;18974;50.838;4.636;2023-03-01T01:10:06;1.20;99.90
32536;DHT22;18974;50.838;4.636;2023-03-01T01:12:32;1.20;99.90
32536;DHT22;18974;50.838;4.636;2023-03-01T01:14:58;1.20;99.90
32536;DHT22;18974;50.838;4.636;2023-03-01T01:17:23;1.10;99.90
32536;DHT22;18974;50.838;4.636;2023-03-01T01:19:49;1.00;99.90
32536;DHT22;18974;50.838;4.636;2023-03-01T01:22:17;1.00;99.90
32536;DHT22;18974;50.838;4.636;2023-03-01T01:24:43;0.90;99.90
32536;DHT22;18974;50.838;4.636;2023-03-01T01:27:08;1.00;99.90
32536;DHT22;18974;50.838;4.636;2023-03-01T01:29:34;0.90;99.90
32536;DHT22;18974;50.838;4.636;2023-03-01T01:32:00;1.00;99.90
32536;DHT22;18974;50.838;4.636;2023-03-01T01:34:25;0.90;99.90
32536;DHT22;18974;50.838;4.636;2023-03-01T01:36:52;0.90;99.90
32536;DHT22;18974;50.838;4.636;2023-03-01T01:39:22;0.90;99.90
32536;DHT22;18974;50.838;4.636;2023-03-01T01:41:48;0.90;99.90
32536;DHT22;18974;50.838;4.636;2023-03-01T01:46:46;0.90;99.90
32536;DHT22;18974;50.838;4.636;2023-03-01T01:49:36;1.00;99.90
32536;DHT22;18974;50.838;4.636;2023-03-01T01:54:48;0.90;99.90
32536;DHT22;18974;50.838;4.636;2023-03-01T01:57:18;0.80;99.90
32536;DHT22;18974;50.838;4.636;2023-03-01T01:59:50;0.80;99.90
32536;DHT22;18974;50.838;4.636;2023-03-01T02:02:16;0.70;99.90
32536;DHT22;18974;50.838;4.636;2023-03-01T02:04:43;0.80;99.90
32536;DHT22;18974;50.838;4.636;2023-03-01T02:07:15;0.70;99.90
32536;DHT22;18974;50.838;4.636;2023-03-01T02:09:45;0.60;99.90
32536;DHT22;18974;50.838;4.636;2023-03-01T02:12:13;0.60;99.90
32536;DHT22;18974;50.838;4.636;2023-03-01T02:14:39;0.50;99.90
32536;DHT22;18974;50.838;4.636;2023-03-01T02:17:04;0.50;99.90
32536;DHT22;18974;50.838;4.636;2023-03-01T02:22:25;0.40;99.90
32536;DHT22;18974;50.838;4.636;2023-03-01T02:25:28;0.40;99.90
32536;DHT22;18974;50.838;4.636;2023-03-01T02:30:33;0.40;99.90
32536;DHT22;18974;50.838;4.636;2023-03-01T02:33:00;0.40;99.90
32536;DHT22;18974;50.838;4.636;2023-03-01T02:35:35;0.30;99.90
32536;DHT22;18974;50.838;4.636;2023-03-01T02:38:05;0.40;99.90
32536;DHT22;18974;50.838;4.636;2023-03-01T02:40:33;0.40;99.90
32536;DHT22;18974;50.838;4.636;2023-03-01T02:42:59;0.40;99.90
32536;DHT22;18974;50.838;4.636;2023-03-01T02:45:26;0.40;99.90
32536;DHT22;18974;50.838;4.636;2023-03-01T02:47:56;0.40;99.90
32536;DHT22;18974;50.838;4.636;2023-03-01T02:50:45;0.40;99.90
32536;DHT22;18974;50.838;4.636;2023-03-01T02:53:33;0.40;99.90
32536;DHT22;18974;50.838;4.636;2023-03-01T02:56:01;0.30;99.90
32536;DHT22;18974;50.838;4.636;2023-03-01T02:58:27;0.30;99.90
32536;DHT22;18974;50.838;4.636;2023-03-01T03:00:52;0.30;99.90
32536;DHT22;18974;50.838;4.636;2023-03-01T03:03:20;0.30;99.90
32536;DHT22;18974;50.838;4.636;2023-03-01T03:05:46;0.30;99.90
32536;DHT22;18974;50.838;4.636;2023-03-01T03:08:13;0.40;99.90
32536;DHT22;18974;50.838;4.636;2023-03-01T03:10:40;0.30;99.90
32536;DHT22;18974;50.838;4.636;2023-03-01T03:13:13;0.40;99.90
32536;DHT22;18974;50.838;4.636;2023-03-01T03:15:40;0.30;99.90
32536;DHT22;18974;50.838;4.636;2023-03-01T03:18:10;0.30;99.90
32536;DHT22;18974;50.838;4.636;2023-03-01T03:20:36;0.20;99.90
32536;DHT22;18974;50.838;4.636;2023-03-01T03:23:03;0.10;99.90
32536;DHT22;18974;50.838;4.636;2023-03-01T03:25:29;0.20;99.90
32536;DHT22;18974;50.838;4.636;2023-03-01T03:27:56;0.20;99.90
32536;DHT22;18974;50.838;4.636;2023-03-01T03:30:30;0.20;99.90
32536;DHT22;18974;50.838;4.636;2023-03-01T03:32:57;0.20;99.90
32536;DHT22;18974;50.838;4.636;2023-03-01T03:35:26;0.20;99.90
32536;DHT22;18974;50.838;4.636;2023-03-01T03:37:54;0.30;99.90
32536;DHT22;18974;50.838;4.636;2023-03-01T03:40:34;0.20;99.90
32536;DHT22;18974;50.838;4.636;2023-03-01T03:43:01;0.20;99.90
32536;DHT22;18974;50.838;4.636;2023-03-01T03:45:27;0.20;99.90
32536;DHT22;18974;50.838;4.636;2023-03-01T03:47:53;0.20;99.90
32536;DHT22;18974;50.838;4.636;2023-03-01T03:50:19;0.20;99.90
32536;DHT22;18974;50.838;4.636;2023-03-01T03:52:44;0.20;99.90
32536;DHT22;18974;50.838;4.636;2023-03-01T03:55:11;0.20;99.90
32536;DHT22;18974;50.838;4.636;2023-03-01T03:57:39;0.10;99.90
32536;DHT22;18974;50.838;4.636;2023-03-01T04:00:07;0.20;99.90
32536;DHT22;18974;50.838;4.636;2023-03-01T04:02:42;0.10;99.90
32536;DHT22;18974;50.838;4.636;2023-03-01T04:05:10;0.20;99.90
32536;DHT22;18974;50.838;4.636;2023-03-01T04:07:36;0.10;99.90
32536;DHT22;18974;50.838;4.636;2023-03-01T04:10:04;0.00;99.90
32536;DHT22;18974;50.838;4.636;2023-03-01T04:12:30;0.00;99.90
32536;DHT22;18974;50.838;4.636;2023-03-01T04:14:56;0.00;99.90
32536;DHT22;18974;50.838;4.636;2023-03-01T04:17:21;0.10;99.90
32536;DHT22;18974;50.838;4.636;2023-03-01T04:19:47;0.10;99.90
32536;DHT22;18974;50.838;4.636;2023-03-01T04:22:15;0.10;99.90
32536;DHT22;18974;50.838;4.636;2023-03-01T04:24:43;0.00;99.90
32536;DHT22;18974;50.838;4.636;2023-03-01T04:27:09;0.00;99.90
32536;DHT22;18974;50.838;4.636;2023-03-01T04:29:34;0.00;99.90
32536;DHT22;18974;50.838;4.636;2023-03-01T04:32:00;0.00;99.90
32536;DHT22;18974;50.838;4.636;2023-03-01T04:34:26;-0.10;99.90
32536;DHT22;18974;50.838;4.636;2023-03-01T04:36:52;-0.10;99.90
32536;DHT22;18974;50.838;4.636;2023-03-01T04:39:18;-0.20;99.90
32536;DHT22;18974;50.838;4.636;2023-03-01T04:41:43;-0.10;99.90
32536;DHT22;18974;50.838;4.636;2023-03-01T04:44:10;-0.10;99.90
32536;DHT22;18974;50.838;4.636;2023-03-01T04:46:36;-0.20;99.90
32536;DHT22;18974;50.838;4.636;2023-03-01T04:49:02;-0.20;99.90
32536;DHT22;18974;50.838;4.636;2023-03-01T04:51:29;-0.10;99.90
32536;DHT22;18974;50.838;4.636;2023-03-01T04:53:54;-0.20;99.90
32536;DHT22;18974;50.838;4.636;2023-03-01T04:56:20;-0.20;99.90
32536;DHT22;18974;50.838;4.636;2023-03-01T04:58:48;-0.20;99.90
32536;DHT22;18974;50.838;4.636;2023-03-01T05:01:16;-0.30;99.90
32536;DHT22;18974;50.838;4.636;2023-03-01T05:03:49;-0.30;99.90
32536;DHT22;18974;50.838;4.636;2023-03-01T05:06:19;-0.30;99.90
32536;DHT22;18974;50.838;4.636;2023-03-01T05:08:45;-0.20;99.90
32536;DHT22;18974;50.838;4.636;2023-03-01T05:11:11;-0.20;99.90
32536;DHT22;18974;50.838;4.636;2023-03-01T05:13:38;-0.30;99.90
32536;DHT22;18974;50.838;4.636;2023-03-01T05:16:05;-0.30;99.90
32536;DHT22;18974;50.838;4.636;2023-03-01T05:18:33;-0.40;99.90
32536;DHT22;18974;50.838;4.636;2023-03-01T05:23:30;-0.50;99.90
32536;DHT22;18974;50.838;4.636;2023-03-01T05:26:00;-0.50;99.90
32536;DHT22;18974;50.838;4.636;2023-03-01T05:28:27;-0.50;99.90
32536;DHT22;18974;50.838;4.636;2023-03-01T05:30:54;-0.50;99.90
32536;DHT22;18974;50.838;4.636;2023-03-01T05:33:20;-0.60;99.90
32536;DHT22;18974;50.838;4.636;2023-03-01T05:35:48;-0.50;99.90
32536;DHT22;18974;50.838;4.636;2023-03-01T05:38:15;-0.50;99.90
32536;DHT22;18974;50.838;4.636;2023-03-01T05:40:43;-0.60;99.90
32536;DHT22;18974;50.838;4.636;2023-03-01T05:43:09;-0.60;99.90
32536;DHT22;18974;50.838;4.636;2023-03-01T05:45:36;-0.60;99.90
32536;DHT22;18974;50.838;4.636;2023-03-01T05:48:03;-0.50;99.90
32536;DHT22;18974;50.838;4.636;2023-03-01T05:50:32;-0.60;99.90
32536;DHT22;18974;50.838;4.636;2023-03-01T05:52:59;-0.60;99.90
32536;DHT22;18974;50.838;4.636;2023-03-01T05:55:25;-0.60;99.90
32536;DHT22;18974;50.838;4.636;2023-03-01T05:57:50;-0.60;99.90
32536;DHT22;18974;50.838;4.636;2023-03-01T06:00:18;-0.60;99.90
32536;DHT22;18974;50.838;4.636;2023-03-01T06:02:44;-0.60;99.90
32536;DHT22;18974;50.838;4.636;2023-03-01T06:05:11;-0.70;99.90
32536;DHT22;18974;50.838;4.636;2023-03-01T06:07:38;-0.70;99.90
32536;DHT22;18974;50.838;4.636;2023-03-01T06:10:04;-0.70;99.90
32536;DHT22;18974;50.838;4.636;2023-03-01T06:12:32;-0.70;99.90
32536;DHT22;18974;50.838;4.636;2023-03-01T06:14:58;-0.70;99.90
32536;DHT22;18974;50.838;4.636;2023-03-01T06:17:24;-0.70;99.90
32536;DHT22;18974;50.838;4.636;2023-03-01T06:19:50;-0.70;99.90
32536;DHT22;18974;50.838;4.636;2023-03-01T06:22:15;-0.70;99.90
32536;DHT22;18974;50.838;4.636;2023-03-01T06:24:41;-0.60;99.90
32536;DHT22;18974;50.838;4.636;2023-03-01T06:27:07;-0.70;99.90
32536;DHT22;18974;50.838;4.636;2023-03-01T06:29:32;-0.60;99.90
32536;DHT22;18974;50.838;4.636;2023-03-01T06:31:58;-0.60;99.90
32536;DHT22;18974;50.838;4.636;2023-03-01T06:34:24;-0.60;99.90
32536;DHT22;18974;50.838;4.636;2023-03-01T06:36:49;-0.70;99.90
32536;DHT22;18974;50.838;4.636;2023-03-01T06:39:15;-0.70;99.90
32536;DHT22;18974;50.838;4.636;2023-03-01T06:41:42;-0.60;99.90
32536;DHT22;18974;50.838;4.636;2023-03-01T06:44:07;-0.60;99.90
32536;DHT22;18974;50.838;4.636;2023-03-01T06:46:33;-0.60;99.90
32536;DHT22;18974;50.838;4.636;2023-03-01T06:48:58;-0.60;99.90
32536;DHT22;18974;50.838;4.636;2023-03-01T06:51:25;-0.60;99.90
32536;DHT22;18974;50.838;4.636;2023-03-01T06:53:51;-0.60;99.90
32536;DHT22;18974;50.838;4.636;2023-03-01T06:56:16;-0.50;99.90
32536;DHT22;18974;50.838;4.636;2023-03-01T06:58:42;-0.40;99.90
32536;DHT22;18974;50.838;4.636;2023-03-01T07:01:08;-0.50;99.90
32536;DHT22;18974;50.838;4.636;2023-03-01T07:03:34;-0.40;99.90
32536;DHT22;18974;50.838;4.636;2023-03-01T07:05:59;-0.40;99.90
32536;DHT22;18974;50.838;4.636;2023-03-01T07:08:25;-0.30;99.90
32536;DHT22;18974;50.838;4.636;2023-03-01T07:10:58;-0.20;99.90
32536;DHT22;18974;50.838;4.636;2023-03-01T07:13:24;-0.20;99.90
32536;DHT22;18974;50.838;4.636;2023-03-01T07:15:49;-0.10;99.90
32536;DHT22;18974;50.838;4.636;2023-03-01T07:18:15;-0.10;99.90
32536;DHT22;18974;50.838;4.636;2023-03-01T07:20:41;0.00;99.90
32536;DHT22;18974;50.838;4.636;2023-03-01T07:23:06;0.10;99.90
32536;DHT22;18974;50.838;4.636;2023-03-01T07:25:33;0.20;99.90
32536;DHT22;18974;50.838;4.636;2023-03-01T07:27:58;0.30;99.90
32536;DHT22;18974;50.838;4.636;2023-03-01T07:30:25;0.30;99.90
32536;DHT22;18974;50.838;4.636;2023-03-01T07:32:53;0.30;99.90
32536;DHT22;18974;50.838;4.636;2023-03-01T07:35:18;0.30;99.90
32536;DHT22;18974;50.838;4.636;2023-03-01T07:37:44;0.40;99.90
32536;DHT22;18974;50.838;4.636;2023-03-01T07:40:10;0.40;99.90
32536;DHT22;18974;50.838;4.636;2023-03-01T07:42:36;0.50;99.90
32536;DHT22;18974;50.838;4.636;2023-03-01T07:45:03;0.60;99.90
32536;DHT22;18974;50.838;4.636;2023-03-01T07:47:29;0.70;99.90
32536;DHT22;18974;50.838;4.636;2023-03-01T07:49:54;0.80;99.90
32536;DHT22;18974;50.838;4.636;2023-03-01T07:52:20;1.00;99.90
32536;DHT22;18974;50.838;4.636;2023-03-01T07:54:46;1.00;99.90
32536;DHT22;18974;50.838;4.636;2023-03-01T07:57:11;1.20;99.90
32536;DHT22;18974;50.838;4.636;2023-03-01T07:59:37;1.30;99.90
32536;DHT22;18974;50.838;4.636;2023-03-01T08:02:03;1.30;99.90
32536;DHT22;18974;50.838;4.636;2023-03-01T08:04:28;1.40;99.90
32536;DHT22;18974;50.838;4.636;2023-03-01T08:06:54;1.40;99.90
32536;DHT22;18974;50.838;4.636;2023-03-01T08:09:21;1.40;99.90
32536;DHT22;18974;50.838;4.636;2023-03-01T08:11:47;1.60;99.90
32536;DHT22;18974;50.838;4.636;2023-03-01T08:14:12;1.60;99.90
32536;DHT22;18974;50.838;4.636;2023-03-01T08:16:38;1.70;99.90
32536;DHT22;18974;50.838;4.636;2023-03-01T08:19:09;1.70;99.90
32536;DHT22;18974;50.838;4.636;2023-03-01T08:21:34;1.80;99.90
32536;DHT22;18974;50.838;4.636;2023-03-01T08:24:02;2.00;99.90
32536;DHT22;18974;50.838;4.636;2023-03-01T08:26:28;2.00;99.90
32536;DHT22;18974;50.838;4.636;2023-03-01T08:28:53;2.20;99.90
32536;DHT22;18974;50.838;4.636;2023-03-01T08:33:55;2.30;99.90
32536;DHT22;18974;50.838;4.636;2023-03-01T08:36:32;2.40;99.90
32536;DHT22;18974;50.838;4.636;2023-03-01T08:38:58;2.40;99.90
32536;DHT22;18974;50.838;4.636;2023-03-01T08:41:24;2.50;99.90
32536;DHT22;18974;50.838;4.636;2023-03-01T08:43:50;2.60;99.90
32536;DHT22;18974;50.838;4.636;2023-03-01T08:46:16;2.60;99.90
32536;DHT22;18974;50.838;4.636;2023-03-01T08:48:41;2.80;99.90
32536;DHT22;18974;50.838;4.636;2023-03-01T08:51:16;2.90;99.90
32536;DHT22;18974;50.838;4.636;2023-03-01T08:53:42;2.90;99.90
32536;DHT22;18974;50.838;4.636;2023-03-01T08:56:09;3.00;99.90
32536;DHT22;18974;50.838;4.636;2023-03-01T08:58:35;3.00;99.90
32536;DHT22;18974;50.838;4.636;2023-03-01T09:01:07;3.10;99.90
32536;DHT22;18974;50.838;4.636;2023-03-01T09:03:32;3.10;99.90
32536;DHT22;18974;50.838;4.636;2023-03-01T09:06:02;3.20;99.90
32536;DHT22;18974;50.838;4.636;2023-03-01T09:08:28;3.30;99.90
32536;DHT22;18974;50.838;4.636;2023-03-01T09:10:54;3.30;99.90
32536;DHT22;18974;50.838;4.636;2023-03-01T09:13:20;3.50;99.90
32536;DHT22;18974;50.838;4.636;2023-03-01T09:15:45;3.50;99.90
32536;DHT22;18974;50.838;4.636;2023-03-01T09:18:11;3.60;99.90
32536;DHT22;18974;50.838;4.636;2023-03-01T09:20:37;3.70;99.90
32536;DHT22;18974;50.838;4.636;2023-03-01T09:23:02;3.70;99.90
32536;DHT22;18974;50.838;4.636;2023-03-01T09:25:28;3.90;99.90
32536;DHT22;18974;50.838;4.636;2023-03-01T09:27:54;3.90;99.90
32536;DHT22;18974;50.838;4.636;2023-03-01T09:30:20;3.90;99.90
32536;DHT22;18974;50.838;4.636;2023-03-01T09:32:46;4.10;99.90
32536;DHT22;18974;50.838;4.636;2023-03-01T09:35:12;4.30;99.90
32536;DHT22;18974;50.838;4.636;2023-03-01T09:37:38;4.40;99.90
32536;DHT22;18974;50.838;4.636;2023-03-01T09:40:13;4.50;99.90
32536;DHT22;18974;50.838;4.636;2023-03-01T09:42:49;4.60;99.90
32536;DHT22;18974;50.838;4.636;2023-03-01T09:45:37;4.70;99.90
32536;DHT22;18974;50.838;4.636;2023-03-01T09:48:14;4.70;99.90
32536;DHT22;18974;50.838;4.636;2023-03-01T09:50:43;4.80;99.90
32536;DHT22;18974;50.838;4.636;2023-03-01T09:53:30;4.90;99.90
32536;DHT22;18974;50.838;4.636;2023-03-01T09:56:15;5.10;99.90
32536;DHT22;18974;50.838;4.636;2023-03-01T10:01:34;5.30;99.90
32536;DHT22;18974;50.838;4.636;2023-03-01T10:09:39;5.30;99.90
32536;DHT22;18974;50.838;4.636;2023-03-01T10:12:10;5.40;99.90
32536;DHT22;18974;50.838;4.636;2023-03-01T10:14:42;5.40;99.90
32536;DHT22;18974;50.838;4.636;2023-03-01T10:17:35;5.50;99.90
32536;DHT22;18974;50.838;4.636;2023-03-01T10:20:40;5.50;99.90
32536;DHT22;18974;50.838;4.636;2023-03-01T10:23:09;5.60;99.90
32536;DHT22;18974;50.838;4.636;2023-03-01T10:25:42;5.60;99.90
32536;DHT22;18974;50.838;4.636;2023-03-01T10:29:14;5.60;99.90
32536;DHT22;18974;50.838;4.636;2023-03-01T10:31:20;5.70;99.90
32536;DHT22;18974;50.838;4.636;2023-03-01T10:33:48;5.70;99.90
32536;DHT22;18974;50.838;4.636;2023-03-01T10:36:16;5.90;99.90
32536;DHT22;18974;50.838;4.636;2023-03-01T10:38:56;6.10;99.90
32536;DHT22;18974;50.838;4.636;2023-03-01T10:41:24;6.10;99.90
32536;DHT22;18974;50.838;4.636;2023-03-01T10:43:53;6.20;99.90
32536;DHT22;18974;50.838;4.636;2023-03-01T10:46:32;6.10;99.90
32536;DHT22;18974;50.838;4.636;2023-03-01T10:49:20;6.20;99.90
32536;DHT22;18974;50.838;4.636;2023-03-01T10:51:51;6.20;99.90
32536;DHT22;18974;50.838;4.636;2023-03-01T10:54:20;6.40;99.90
32536;DHT22;18974;50.838;4.636;2023-03-01T10:56:53;6.40;99.90
32536;DHT22;18974;50.838;4.636;2023-03-01T11:07:24;6.70;99.90
32536;DHT22;18974;50.838;4.636;2023-03-01T11:09:50;7.00;99.90
32536;DHT22;18974;50.838;4.636;2023-03-01T11:12:16;7.10;99.90
32536;DHT22;18974;50.838;4.636;2023-03-01T11:14:48;7.30;99.90
32536;DHT22;18974;50.838;4.636;2023-03-01T11:17:18;7.40;99.50
32536;DHT22;18974;50.838;4.636;2023-03-01T11:22:49;7.10;99.20
32536;DHT22;18974;50.838;4.636;2023-03-01T11:25:17;7.20;98.80
32536;DHT22;18974;50.838;4.636;2023-03-01T11:27:45;7.10;99.40
32536;DHT22;18974;50.838;4.636;2023-03-01T11:33:02;7.40;98.60
32536;DHT22;18974;50.838;4.636;2023-03-01T11:35:29;7.60;98.40
32536;DHT22;18974;50.838;4.636;2023-03-01T11:38:03;7.60;98.30
32536;DHT22;18974;50.838;4.636;2023-03-01T11:40:37;7.90;98.10
32536;DHT22;18974;50.838;4.636;2023-03-01T11:43:19;8.00;98.00
32536;DHT22;18974;50.838;4.636;2023-03-01T11:51:22;8.10;96.20
32536;DHT22;18974;50.838;4.636;2023-03-01T11:56:29;8.10;97.00
32536;DHT22;18974;50.838;4.636;2023-03-01T12:04:48;8.40;96.60
32536;DHT22;18974;50.838;4.636;2023-03-01T12:10:17;8.90;97.00
32536;DHT22;18974;50.838;4.636;2023-03-01T12:18:26;8.60;96.10
32536;DHT22;18974;50.838;4.636;2023-03-01T12:24:16;8.30;95.30
32536;DHT22;18974;50.838;4.636;2023-03-01T12:27:26;8.30;95.90
32536;DHT22;18974;50.838;4.636;2023-03-01T12:35:34;8.60;95.20
32536;DHT22;18974;50.838;4.636;2023-03-01T12:46:38;8.90;94.40
32536;DHT22;18974;50.838;4.636;2023-03-01T12:49:16;9.10;94.40
32536;DHT22;18974;50.838;4.636;2023-03-01T12:52:22;9.30;94.60
32536;DHT22;18974;50.838;4.636;2023-03-01T12:54:52;9.40;94.00
32536;DHT22;18974;50.838;4.636;2023-03-01T12:57:42;9.40;93.70
32536;DHT22;18974;50.838;4.636;2023-03-01T13:00:40;9.30;93.50
32536;DHT22;18974;50.838;4.636;2023-03-01T13:03:13;9.40;93.80
32536;DHT22;18974;50.838;4.636;2023-03-01T13:06:25;9.40;94.10
32536;DHT22;18974;50.838;4.636;2023-03-01T13:08:33;9.50;93.90
32536;DHT22;18974;50.838;4.636;2023-03-01T13:11:04;9.50;93.10
32536;DHT22;18974;50.838;4.636;2023-03-01T13:13:31;9.50;93.50
32536;DHT22;18974;50.838;4.636;2023-03-01T13:15:57;9.30;93.90
32536;DHT22;18974;50.838;4.636;2023-03-01T13:18:43;9.40;93.70
32536;DHT22;18974;50.838;4.636;2023-03-01T13:21:08;9.30;93.60
32536;DHT22;18974;50.838;4.636;2023-03-01T13:23:37;9.50;92.60
32536;DHT22;18974;50.838;4.636;2023-03-01T13:26:13;9.40;92.90
32536;DHT22;18974;50.838;4.636;2023-03-01T13:33:50;9.70;93.10
32536;DHT22;18974;50.838;4.636;2023-03-01T13:38:58;9.60;92.10
32536;DHT22;18974;50.838;4.636;2023-03-01T13:44:37;9.50;91.70
32536;DHT22;18974;50.838;4.636;2023-03-01T13:49:49;9.50;92.20
32536;DHT22;18974;50.838;4.636;2023-03-01T13:52:35;9.40;92.30
32536;DHT22;18974;50.838;4.636;2023-03-01T13:55:06;9.40;91.30
32536;DHT22;18974;50.838;4.636;2023-03-01T13:57:39;9.30;91.80
32536;DHT22;18974;50.838;4.636;2023-03-01T14:00:05;9.50;92.60
32536;DHT22;18974;50.838;4.636;2023-03-01T14:02:31;9.60;91.90
32536;DHT22;18974;50.838;4.636;2023-03-01T14:05:00;9.60;92.10
32536;DHT22;18974;50.838;4.636;2023-03-01T14:07:27;9.60;92.10
32536;DHT22;18974;50.838;4.636;2023-03-01T14:10:03;9.50;92.30
32536;DHT22;18974;50.838;4.636;2023-03-01T14:12:55;9.60;91.80
32536;DHT22;18974;50.838;4.636;2023-03-01T14:15:38;9.50;93.40
32536;DHT22;18974;50.838;4.636;2023-03-01T14:18:47;9.60;92.50
32536;DHT22;18974;50.838;4.636;2023-03-01T14:21:17;9.70;92.30
32536;DHT22;18974;50.838;4.636;2023-03-01T14:23:43;9.80;91.60
32536;DHT22;18974;50.838;4.636;2023-03-01T14:26:09;9.70;91.80
32536;DHT22;18974;50.838;4.636;2023-03-01T14:28:38;9.70;91.80
32536;DHT22;18974;50.838;4.636;2023-03-01T14:31:37;9.60;92.10
32536;DHT22;18974;50.838;4.636;2023-03-01T14:34:04;9.40;92.00
32536;DHT22;18974;50.838;4.636;2023-03-01T14:36:33;9.20;91.80
32536;DHT22;18974;50.838;4.636;2023-03-01T14:38:59;9.10;92.80
32536;DHT22;18974;50.838;4.636;2023-03-01T14:41:32;9.20;92.90
32536;DHT22;18974;50.838;4.636;2023-03-01T14:44:06;9.20;91.70
32536;DHT22;18974;50.838;4.636;2023-03-01T14:46:41;9.20;91.50
32536;DHT22;18974;50.838;4.636;2023-03-01T14:49:16;9.10;91.80
32536;DHT22;18974;50.838;4.636;2023-03-01T14:51:50;9.10;91.90
32536;DHT22;18974;50.838;4.636;2023-03-01T14:54:40;9.20;92.20
32536;DHT22;18974;50.838;4.636;2023-03-01T14:57:15;9.10;91.70
32536;DHT22;18974;50.838;4.636;2023-03-01T14:59:42;9.10;92.20
32536;DHT22;18974;50.838;4.636;2023-03-01T15:02:23;9.20;90.60
32536;DHT22;18974;50.838;4.636;2023-03-01T15:04:53;9.10;91.10
32536;DHT22;18974;50.838;4.636;2023-03-01T15:07:22;9.10;91.30
32536;DHT22;18974;50.838;4.636;2023-03-01T15:09:51;9.10;92.60
32536;DHT22;18974;50.838;4.636;2023-03-01T15:12:38;8.90;91.80
32536;DHT22;18974;50.838;4.636;2023-03-01T15:15:46;8.90;91.70
32536;DHT22;18974;50.838;4.636;2023-03-01T15:18:17;8.80;91.00
32536;DHT22;18974;50.838;4.636;2023-03-01T15:20:44;8.80;91.20
32536;DHT22;18974;50.838;4.636;2023-03-01T15:23:37;8.70;90.90
32536;DHT22;18974;50.838;4.636;2023-03-01T15:26:04;8.60;90.60
32536;DHT22;18974;50.838;4.636;2023-03-01T15:28:34;8.50;90.90
32536;DHT22;18974;50.838;4.636;2023-03-01T15:31:21;8.50;91.30
32536;DHT22;18974;50.838;4.636;2023-03-01T15:33:47;8.40;91.20
32536;DHT22;18974;50.838;4.636;2023-03-01T15:38:58;8.30;91.80
32536;DHT22;18974;50.838;4.636;2023-03-01T15:41:46;8.30;91.60
32536;DHT22;18974;50.838;4.636;2023-03-01T15:44:30;8.20;91.60
32536;DHT22;18974;50.838;4.636;2023-03-01T15:46:56;8.10;92.00
32536;DHT22;18974;50.838;4.636;2023-03-01T15:49:42;8.00;92.00
32536;DHT22;18974;50.838;4.636;2023-03-01T15:52:24;8.10;91.90
32536;DHT22;18974;50.838;4.636;2023-03-01T15:54:59;8.10;92.20
32536;DHT22;18974;50.838;4.636;2023-03-01T15:57:25;8.10;92.10
32536;DHT22;18974;50.838;4.636;2023-03-01T15:59:51;8.10;92.20
32536;DHT22;18974;50.838;4.636;2023-03-01T16:02:17;8.00;92.50
32536;DHT22;18974;50.838;4.636;2023-03-01T16:04:43;8.00;92.60
32536;DHT22;18974;50.838;4.636;2023-03-01T16:07:09;8.00;93.00
32536;DHT22;18974;50.838;4.636;2023-03-01T16:09:35;7.80;92.90
32536;DHT22;18974;50.838;4.636;2023-03-01T16:12:01;7.80;93.20
32536;DHT22;18974;50.838;4.636;2023-03-01T16:14:27;7.70;93.50
32536;DHT22;18974;50.838;4.636;2023-03-01T16:16:53;7.80;93.10
32536;DHT22;18974;50.838;4.636;2023-03-01T16:19:18;7.80;93.00
32536;DHT22;18974;50.838;4.636;2023-03-01T16:21:44;7.70;92.90
32536;DHT22;18974;50.838;4.636;2023-03-01T16:24:12;7.70;92.80
32536;DHT22;18974;50.838;4.636;2023-03-01T16:26:38;7.70;93.20
32536;DHT22;18974;50.838;4.636;2023-03-01T16:29:04;7.70;92.70
32536;DHT22;18974;50.838;4.636;2023-03-01T16:31:30;7.60;92.80
32536;DHT22;18974;50.838;4.636;2023-03-01T16:33:57;7.70;93.10
32536;DHT22;18974;50.838;4.636;2023-03-01T16:36:24;7.60;93.10
32536;DHT22;18974;50.838;4.636;2023-03-01T16:38:53;7.60;93.30
32536;DHT22;18974;50.838;4.636;2023-03-01T16:41:21;7.40;93.20
32536;DHT22;18974;50.838;4.636;2023-03-01T16:43:48;7.40;93.60
32536;DHT22;18974;50.838;4.636;2023-03-01T16:46:20;7.40;93.20
32536;DHT22;18974;50.838;4.636;2023-03-01T16:48:46;7.40;93.30
32536;DHT22;18974;50.838;4.636;2023-03-01T16:51:13;7.20;93.20
32536;DHT22;18974;50.838;4.636;2023-03-01T16:53:38;7.10;93.50
32536;DHT22;18974;50.838;4.636;2023-03-01T16:56:07;7.10;93.70
32536;DHT22;18974;50.838;4.636;2023-03-01T16:58:34;7.10;94.00
32536;DHT22;18974;50.838;4.636;2023-03-01T17:01:05;7.00;93.90
32536;DHT22;18974;50.838;4.636;2023-03-01T17:03:32;7.00;94.00
32536;DHT22;18974;50.838;4.636;2023-03-01T17:06:01;7.00;94.00
32536;DHT22;18974;50.838;4.636;2023-03-01T17:08:27;7.10;94.00
32536;DHT22;18974;50.838;4.636;2023-03-01T17:10:52;7.10;94.20
32536;DHT22;18974;50.838;4.636;2023-03-01T17:13:18;7.00;94.30
32536;DHT22;18974;50.838;4.636;2023-03-01T17:15:46;6.90;94.50
32536;DHT22;18974;50.838;4.636;2023-03-01T17:18:11;6.80;95.10
32536;DHT22;18974;50.838;4.636;2023-03-01T17:20:37;6.70;94.70
32536;DHT22;18974;50.838;4.636;2023-03-01T17:23:03;6.70;95.40
32536;DHT22;18974;50.838;4.636;2023-03-01T17:25:29;6.70;95.10
32536;DHT22;18974;50.838;4.636;2023-03-01T17:27:57;6.70;95.20
32536;DHT22;18974;50.838;4.636;2023-03-01T17:30:23;6.70;95.30
32536;DHT22;18974;50.838;4.636;2023-03-01T17:32:49;6.70;95.30